sensor_id;sensor_type;location;lat;lon;timestamp;P1;durP1;ratioP1;P2;durP2;ratioP2
20067;SDS011;10194;50.824;7.134;2022-11-18T00:02:13;276.47;;;248.53;;
20067;SDS011;10194;50.824;7.134;2022-11-18T00:04:38;283.93;;;255.90;;
20067;SDS011;10194;50.824;7.134;2022-11-18T00:07:04;282.70;;;254.57;;
20067;SDS011;10194;50.824;7.134;2022-11-18T00:09:30;283.73;;;254.77;;
20067;SDS011;10194;50.824;7.134;2022-11-18T00:11:56;283.53;;;255.63;;
20067;SDS011;10194;50.824;7.134;2022-11-18T00:14:40;291.33;;;262.87;;
20067;SDS011;10194;50.824;7.134;2022-11-18T00:17:06;285.47;;;257.13;;
20067;SDS011;10194;50.824;7.134;2022-11-18T00:19:34;289.00;;;259.83;;
20067;SDS011;10194;50.824;7.134;2022-11-18T00:22:03;293.87;;;265.23;;
20067;SDS011;10194;50.824;7.134;2022-11-18T00:24:31;290.03;;;261.63;;
20067;SDS011;10194;50.824;7.134;2022-11-18T00:26:57;286.37;;;258.10;;
20067;SDS011;10194;50.824;7.134;2022-11-18T00:29:23;291.40;;;262.63;;
20067;SDS011;10194;50.824;7.134;2022-11-18T00:31:56;290.63;;;262.07;;
20067;SDS011;10194;50.824;7.134;2022-11-18T00:34:23;279.83;;;251.07;;
20067;SDS011;10194;50.824;7.134;2022-11-18T00:36:49;258.77;;;231.47;;
20067;SDS011;10194;50.824;7.134;2022-11-18T00:39:16;251.33;;;224.03;;
20067;SDS011;10194;50.824;7.134;2022-11-18T00:41:44;243.73;;;207.87;;
20067;SDS011;10194;50.824;7.134;2022-11-18T00:44:29;243.67;;;209.37;;
20067;SDS011;10194;50.824;7.134;2022-11-18T00:46:54;244.80;;;204.87;;
20067;SDS011;10194;50.824;7.134;2022-11-18T00:49:21;244.73;;;215.20;;
20067;SDS011;10194;50.824;7.134;2022-11-18T00:51:47;251.73;;;222.87;;
20067;SDS011;10194;50.824;7.134;2022-11-18T00:54:13;257.63;;;229.83;;
20067;SDS011;10194;50.824;7.134;2022-11-18T00:56:38;257.43;;;229.37;;
20067;SDS011;10194;50.824;7.134;2022-11-18T00:59:04;260.60;;;232.83;;
20067;SDS011;10194;50.824;7.134;2022-11-18T01:01:30;262.13;;;234.13;;
20067;SDS011;10194;50.824;7.134;2022-11-18T01:03:56;259.83;;;231.97;;
20067;SDS011;10194;50.824;7.134;2022-11-18T01:06:22;269.83;;;241.43;;
20067;SDS011;10194;50.824;7.134;2022-11-18T01:08:48;280.03;;;251.57;;
20067;SDS011;10194;50.824;7.134;2022-11-18T01:11:14;274.70;;;246.47;;
20067;SDS011;10194;50.824;7.134;2022-11-18T01:13:59;285.50;;;256.53;;
20067;SDS011;10194;50.824;7.134;2022-11-18T01:16:26;280.67;;;251.67;;
20067;SDS011;10194;50.824;7.134;2022-11-18T01:18:53;286.97;;;257.70;;
20067;SDS011;10194;50.824;7.134;2022-11-18T01:21:19;282.67;;;254.03;;
20067;SDS011;10194;50.824;7.134;2022-11-18T01:23:45;291.97;;;263.57;;
20067;SDS011;10194;50.824;7.134;2022-11-18T01:26:13;290.57;;;261.50;;
20067;SDS011;10194;50.824;7.134;2022-11-18T01:28:41;279.30;;;250.83;;
20067;SDS011;10194;50.824;7.134;2022-11-18T01:31:08;294.10;;;265.40;;
20067;SDS011;10194;50.824;7.134;2022-11-18T01:33:39;300.73;;;271.60;;
20067;SDS011;10194;50.824;7.134;2022-11-18T01:36:16;306.90;;;276.73;;
20067;SDS011;10194;50.824;7.134;2022-11-18T01:38:44;310.90;;;280.83;;
20067;SDS011;10194;50.824;7.134;2022-11-18T01:41:11;311.73;;;281.27;;
20067;SDS011;10194;50.824;7.134;2022-11-18T01:46:23;299.80;;;270.73;;
20067;SDS011;10194;50.824;7.134;2022-11-18T01:49:13;292.07;;;263.07;;
20067;SDS011;10194;50.824;7.134;2022-11-18T01:51:48;294.67;;;265.17;;
20067;SDS011;10194;50.824;7.134;2022-11-18T01:54:23;284.13;;;255.27;;
20067;SDS011;10194;50.824;7.134;2022-11-18T01:56:59;286.57;;;258.03;;
20067;SDS011;10194;50.824;7.134;2022-11-18T01:59:29;283.80;;;255.73;;
20067;SDS011;10194;50.824;7.134;2022-11-18T02:02:00;281.83;;;253.40;;
20067;SDS011;10194;50.824;7.134;2022-11-18T02:04:30;270.30;;;242.43;;
20067;SDS011;10194;50.824;7.134;2022-11-18T02:06:56;272.07;;;243.07;;
20067;SDS011;10194;50.824;7.134;2022-11-18T02:09:22;251.90;;;223.53;;
20067;SDS011;10194;50.824;7.134;2022-11-18T02:11:48;258.17;;;230.63;;
20067;SDS011;10194;50.824;7.134;2022-11-18T02:14:15;248.97;;;219.17;;
20067;SDS011;10194;50.824;7.134;2022-11-18T02:19:34;244.90;;;217.47;;
20067;SDS011;10194;50.824;7.134;2022-11-18T02:28:34;255.43;;;228.20;;
20067;SDS011;10194;50.824;7.134;2022-11-18T02:31:33;262.80;;;234.87;;
20067;SDS011;10194;50.824;7.134;2022-11-18T02:34:30;267.63;;;239.97;;
20067;SDS011;10194;50.824;7.134;2022-11-18T02:37:46;285.70;;;257.50;;
20067;SDS011;10194;50.824;7.134;2022-11-18T02:40:22;294.73;;;265.90;;
20067;SDS011;10194;50.824;7.134;2022-11-18T02:43:09;297.40;;;267.83;;
20067;SDS011;10194;50.824;7.134;2022-11-18T02:45:48;298.50;;;269.03;;
20067;SDS011;10194;50.824;7.134;2022-11-18T02:48:19;283.07;;;254.63;;
20067;SDS011;10194;50.824;7.134;2022-11-18T02:50:48;281.53;;;252.13;;
20067;SDS011;10194;50.824;7.134;2022-11-18T02:53:18;279.67;;;250.90;;
20067;SDS011;10194;50.824;7.134;2022-11-18T02:55:46;283.67;;;254.50;;
20067;SDS011;10194;50.824;7.134;2022-11-18T02:58:14;290.93;;;261.63;;
20067;SDS011;10194;50.824;7.134;2022-11-18T03:00:43;284.13;;;255.13;;
20067;SDS011;10194;50.824;7.134;2022-11-18T03:03:20;288.27;;;259.60;;
20067;SDS011;10194;50.824;7.134;2022-11-18T03:08:37;287.30;;;258.53;;
20067;SDS011;10194;50.824;7.134;2022-11-18T03:11:17;279.13;;;250.93;;
20067;SDS011;10194;50.824;7.134;2022-11-18T03:16:22;277.13;;;248.43;;
20067;SDS011;10194;50.824;7.134;2022-11-18T03:24:47;283.27;;;254.43;;
20067;SDS011;10194;50.824;7.134;2022-11-18T03:27:30;286.53;;;257.73;;
20067;SDS011;10194;50.824;7.134;2022-11-18T03:30:06;285.80;;;257.07;;
20067;SDS011;10194;50.824;7.134;2022-11-18T03:32:37;294.00;;;264.97;;
20067;SDS011;10194;50.824;7.134;2022-11-18T03:35:08;290.43;;;261.57;;
20067;SDS011;10194;50.824;7.134;2022-11-18T03:37:41;286.90;;;258.57;;
20067;SDS011;10194;50.824;7.134;2022-11-18T03:40:12;273.07;;;245.50;;
20067;SDS011;10194;50.824;7.134;2022-11-18T03:42:44;278.90;;;250.17;;
20067;SDS011;10194;50.824;7.134;2022-11-18T03:45:15;272.37;;;244.23;;
20067;SDS011;10194;50.824;7.134;2022-11-18T03:48:23;275.87;;;247.37;;
20067;SDS011;10194;50.824;7.134;2022-11-18T03:50:52;283.60;;;255.00;;
20067;SDS011;10194;50.824;7.134;2022-11-18T03:53:26;271.93;;;244.10;;
20067;SDS011;10194;50.824;7.134;2022-11-18T03:55:57;268.53;;;241.07;;
20067;SDS011;10194;50.824;7.134;2022-11-18T03:59:02;264.63;;;236.50;;
20067;SDS011;10194;50.824;7.134;2022-11-18T04:01:51;265.47;;;237.63;;
20067;SDS011;10194;50.824;7.134;2022-11-18T04:04:28;263.00;;;234.50;;
20067;SDS011;10194;50.824;7.134;2022-11-18T04:09:55;245.20;;;214.47;;
20067;SDS011;10194;50.824;7.134;2022-11-18T04:12:34;243.57;;;209.67;;
20067;SDS011;10194;50.824;7.134;2022-11-18T04:15:07;248.73;;;208.93;;
20067;SDS011;10194;50.824;7.134;2022-11-18T04:17:33;242.43;;;203.50;;
20067;SDS011;10194;50.824;7.134;2022-11-18T04:19:59;242.57;;;194.50;;
20067;SDS011;10194;50.824;7.134;2022-11-18T04:22:25;246.23;;;201.23;;
20067;SDS011;10194;50.824;7.134;2022-11-18T04:24:50;247.93;;;214.47;;
20067;SDS011;10194;50.824;7.134;2022-11-18T04:27:16;242.60;;;216.00;;
20067;SDS011;10194;50.824;7.134;2022-11-18T04:29:42;247.23;;;216.33;;
20067;SDS011;10194;50.824;7.134;2022-11-18T04:32:08;252.40;;;224.90;;
20067;SDS011;10194;50.824;7.134;2022-11-18T04:34:34;250.03;;;219.40;;
20067;SDS011;10194;50.824;7.134;2022-11-18T04:37:00;244.70;;;216.43;;
20067;SDS011;10194;50.824;7.134;2022-11-18T04:39:26;245.90;;;211.70;;
20067;SDS011;10194;50.824;7.134;2022-11-18T04:41:51;238.33;;;197.07;;
20067;SDS011;10194;50.824;7.134;2022-11-18T04:44:24;247.23;;;214.17;;
20067;SDS011;10194;50.824;7.134;2022-11-18T04:46:50;244.20;;;212.17;;
20067;SDS011;10194;50.824;7.134;2022-11-18T04:49:17;241.83;;;204.77;;
20067;SDS011;10194;50.824;7.134;2022-11-18T04:51:43;239.73;;;203.63;;
20067;SDS011;10194;50.824;7.134;2022-11-18T04:54:10;243.37;;;202.90;;
20067;SDS011;10194;50.824;7.134;2022-11-18T04:56:36;237.83;;;182.70;;
20067;SDS011;10194;50.824;7.134;2022-11-18T04:59:03;233.40;;;186.10;;
20067;SDS011;10194;50.824;7.134;2022-11-18T05:01:29;242.97;;;209.47;;
20067;SDS011;10194;50.824;7.134;2022-11-18T05:03:56;245.57;;;216.57;;
20067;SDS011;10194;50.824;7.134;2022-11-18T05:06:24;245.47;;;210.40;;
20067;SDS011;10194;50.824;7.134;2022-11-18T05:08:49;242.20;;;210.50;;
20067;SDS011;10194;50.824;7.134;2022-11-18T05:11:15;245.97;;;216.53;;
20067;SDS011;10194;50.824;7.134;2022-11-18T05:13:59;254.90;;;226.43;;
20067;SDS011;10194;50.824;7.134;2022-11-18T05:16:25;243.60;;;216.87;;
20067;SDS011;10194;50.824;7.134;2022-11-18T05:18:51;241.30;;;214.43;;
20067;SDS011;10194;50.824;7.134;2022-11-18T05:21:17;245.27;;;217.40;;
20067;SDS011;10194;50.824;7.134;2022-11-18T05:23:43;267.47;;;240.20;;
20067;SDS011;10194;50.824;7.134;2022-11-18T05:26:09;272.90;;;245.23;;
20067;SDS011;10194;50.824;7.134;2022-11-18T05:28:36;293.60;;;265.37;;
20067;SDS011;10194;50.824;7.134;2022-11-18T05:31:09;276.30;;;248.37;;
20067;SDS011;10194;50.824;7.134;2022-11-18T05:33:38;282.13;;;254.03;;
20067;SDS011;10194;50.824;7.134;2022-11-18T05:36:05;284.37;;;256.40;;
20067;SDS011;10194;50.824;7.134;2022-11-18T05:38:35;294.33;;;265.97;;
20067;SDS011;10194;50.824;7.134;2022-11-18T05:41:01;296.07;;;268.00;;
20067;SDS011;10194;50.824;7.134;2022-11-18T05:43:28;295.77;;;267.17;;
20067;SDS011;10194;50.824;7.134;2022-11-18T05:45:55;292.43;;;263.90;;
20067;SDS011;10194;50.824;7.134;2022-11-18T05:48:21;291.63;;;263.43;;
20067;SDS011;10194;50.824;7.134;2022-11-18T05:50:48;283.60;;;255.40;;
20067;SDS011;10194;50.824;7.134;2022-11-18T05:53:16;283.20;;;255.13;;
20067;SDS011;10194;50.824;7.134;2022-11-18T05:55:49;284.03;;;255.37;;
20067;SDS011;10194;50.824;7.134;2022-11-18T05:58:22;289.30;;;260.50;;
20067;SDS011;10194;50.824;7.134;2022-11-18T06:00:48;287.33;;;258.73;;
20067;SDS011;10194;50.824;7.134;2022-11-18T06:03:20;290.07;;;261.23;;
20067;SDS011;10194;50.824;7.134;2022-11-18T06:05:54;286.90;;;258.60;;
20067;SDS011;10194;50.824;7.134;2022-11-18T06:08:23;281.70;;;253.20;;
20067;SDS011;10194;50.824;7.134;2022-11-18T06:10:54;284.30;;;255.80;;
20067;SDS011;10194;50.824;7.134;2022-11-18T06:13:27;275.93;;;247.73;;
20067;SDS011;10194;50.824;7.134;2022-11-18T06:16:02;260.40;;;232.70;;
20067;SDS011;10194;50.824;7.134;2022-11-18T06:18:29;243.27;;;211.20;;
20067;SDS011;10194;50.824;7.134;2022-11-18T06:20:57;239.13;;;196.30;;
20067;SDS011;10194;50.824;7.134;2022-11-18T06:23:26;245.27;;;215.57;;
20067;SDS011;10194;50.824;7.134;2022-11-18T06:25:55;247.57;;;215.73;;
20067;SDS011;10194;50.824;7.134;2022-11-18T06:28:21;248.97;;;221.47;;
20067;SDS011;10194;50.824;7.134;2022-11-18T06:30:47;250.70;;;223.63;;
20067;SDS011;10194;50.824;7.134;2022-11-18T06:33:13;244.80;;;217.00;;
20067;SDS011;10194;50.824;7.134;2022-11-18T06:35:40;255.60;;;227.80;;
20067;SDS011;10194;50.824;7.134;2022-11-18T06:38:07;250.20;;;222.73;;
20067;SDS011;10194;50.824;7.134;2022-11-18T06:40:33;248.83;;;221.80;;
20067;SDS011;10194;50.824;7.134;2022-11-18T06:43:04;248.13;;;215.17;;
20067;SDS011;10194;50.824;7.134;2022-11-18T06:45:52;260.77;;;233.47;;
20067;SDS011;10194;50.824;7.134;2022-11-18T06:48:45;260.47;;;232.67;;
20067;SDS011;10194;50.824;7.134;2022-11-18T06:51:11;248.30;;;214.87;;
20067;SDS011;10194;50.824;7.134;2022-11-18T06:53:37;248.77;;;211.90;;
20067;SDS011;10194;50.824;7.134;2022-11-18T06:56:06;251.23;;;222.93;;
20067;SDS011;10194;50.824;7.134;2022-11-18T06:58:34;246.97;;;219.10;;
20067;SDS011;10194;50.824;7.134;2022-11-18T07:03:38;251.33;;;223.23;;
20067;SDS011;10194;50.824;7.134;2022-11-18T07:06:05;248.20;;;215.00;;
20067;SDS011;10194;50.824;7.134;2022-11-18T07:08:35;246.33;;;218.87;;
20067;SDS011;10194;50.824;7.134;2022-11-18T07:11:03;249.97;;;220.37;;
20067;SDS011;10194;50.824;7.134;2022-11-18T07:13:32;254.73;;;227.07;;
20067;SDS011;10194;50.824;7.134;2022-11-18T07:16:03;248.43;;;218.63;;
20067;SDS011;10194;50.824;7.134;2022-11-18T07:18:34;241.47;;;208.63;;
20067;SDS011;10194;50.824;7.134;2022-11-18T07:21:03;242.27;;;205.67;;
20067;SDS011;10194;50.824;7.134;2022-11-18T07:23:37;236.27;;;199.67;;
20067;SDS011;10194;50.824;7.134;2022-11-18T07:26:03;239.07;;;201.33;;
20067;SDS011;10194;50.824;7.134;2022-11-18T07:28:29;242.07;;;188.53;;
20067;SDS011;10194;50.824;7.134;2022-11-18T07:30:59;243.37;;;191.77;;
20067;SDS011;10194;50.824;7.134;2022-11-18T07:33:30;240.93;;;190.43;;
20067;SDS011;10194;50.824;7.134;2022-11-18T07:36:03;238.20;;;185.17;;
20067;SDS011;10194;50.824;7.134;2022-11-18T07:38:51;242.37;;;191.77;;
20067;SDS011;10194;50.824;7.134;2022-11-18T07:41:18;242.90;;;186.30;;
20067;SDS011;10194;50.824;7.134;2022-11-18T07:43:46;245.10;;;179.90;;
20067;SDS011;10194;50.824;7.134;2022-11-18T07:46:21;238.40;;;179.43;;
20067;SDS011;10194;50.824;7.134;2022-11-18T07:48:52;248.47;;;183.27;;
20067;SDS011;10194;50.824;7.134;2022-11-18T07:51:21;234.90;;;175.33;;
20067;SDS011;10194;50.824;7.134;2022-11-18T07:53:52;238.13;;;187.57;;
20067;SDS011;10194;50.824;7.134;2022-11-18T07:56:18;236.13;;;175.10;;
20067;SDS011;10194;50.824;7.134;2022-11-18T07:58:45;232.33;;;175.60;;
20067;SDS011;10194;50.824;7.134;2022-11-18T08:01:16;237.60;;;181.60;;
20067;SDS011;10194;50.824;7.134;2022-11-18T08:03:43;236.73;;;174.37;;
20067;SDS011;10194;50.824;7.134;2022-11-18T08:06:11;237.63;;;173.93;;
20067;SDS011;10194;50.824;7.134;2022-11-18T08:08:39;236.07;;;171.43;;
20067;SDS011;10194;50.824;7.134;2022-11-18T08:11:06;237.63;;;176.77;;
20067;SDS011;10194;50.824;7.134;2022-11-18T08:13:34;232.17;;;170.07;;
20067;SDS011;10194;50.824;7.134;2022-11-18T08:16:01;236.07;;;179.13;;
20067;SDS011;10194;50.824;7.134;2022-11-18T08:18:28;237.80;;;168.47;;
20067;SDS011;10194;50.824;7.134;2022-11-18T08:21:00;238.73;;;175.40;;
20067;SDS011;10194;50.824;7.134;2022-11-18T08:23:27;235.77;;;169.43;;
20067;SDS011;10194;50.824;7.134;2022-11-18T08:25:59;234.47;;;175.20;;
20067;SDS011;10194;50.824;7.134;2022-11-18T08:28:31;233.17;;;171.60;;
20067;SDS011;10194;50.824;7.134;2022-11-18T08:30:57;234.07;;;170.13;;
20067;SDS011;10194;50.824;7.134;2022-11-18T08:33:23;233.13;;;176.47;;
20067;SDS011;10194;50.824;7.134;2022-11-18T08:35:49;241.73;;;180.10;;
20067;SDS011;10194;50.824;7.134;2022-11-18T08:38:16;236.03;;;176.03;;
20067;SDS011;10194;50.824;7.134;2022-11-18T08:40:43;242.53;;;172.17;;
20067;SDS011;10194;50.824;7.134;2022-11-18T08:43:11;244.07;;;176.37;;
20067;SDS011;10194;50.824;7.134;2022-11-18T08:45:40;238.83;;;177.83;;
20067;SDS011;10194;50.824;7.134;2022-11-18T08:48:06;238.70;;;193.77;;
20067;SDS011;10194;50.824;7.134;2022-11-18T08:50:32;244.80;;;194.50;;
20067;SDS011;10194;50.824;7.134;2022-11-18T08:52:58;248.87;;;186.30;;
20067;SDS011;10194;50.824;7.134;2022-11-18T08:55:24;240.20;;;178.20;;
20067;SDS011;10194;50.824;7.134;2022-11-18T08:57:49;237.93;;;181.07;;
20067;SDS011;10194;50.824;7.134;2022-11-18T09:00:15;240.90;;;187.40;;
20067;SDS011;10194;50.824;7.134;2022-11-18T09:02:42;242.90;;;189.93;;
20067;SDS011;10194;50.824;7.134;2022-11-18T09:05:07;243.93;;;193.83;;
20067;SDS011;10194;50.824;7.134;2022-11-18T09:07:33;249.37;;;203.03;;
20067;SDS011;10194;50.824;7.134;2022-11-18T09:09:59;242.30;;;194.97;;
20067;SDS011;10194;50.824;7.134;2022-11-18T09:12:25;242.10;;;198.33;;
20067;SDS011;10194;50.824;7.134;2022-11-18T09:14:50;242.13;;;187.10;;
20067;SDS011;10194;50.824;7.134;2022-11-18T09:17:16;240.67;;;184.63;;
20067;SDS011;10194;50.824;7.134;2022-11-18T09:19:42;239.83;;;188.67;;
20067;SDS011;10194;50.824;7.134;2022-11-18T09:22:08;239.40;;;175.50;;
20067;SDS011;10194;50.824;7.134;2022-11-18T09:24:34;240.47;;;173.47;;
20067;SDS011;10194;50.824;7.134;2022-11-18T09:27:04;240.80;;;178.80;;
20067;SDS011;10194;50.824;7.134;2022-11-18T09:29:31;240.33;;;171.10;;
20067;SDS011;10194;50.824;7.134;2022-11-18T09:31:57;239.03;;;175.97;;
20067;SDS011;10194;50.824;7.134;2022-11-18T09:34:26;238.37;;;179.13;;
20067;SDS011;10194;50.824;7.134;2022-11-18T09:36:52;235.53;;;172.93;;
20067;SDS011;10194;50.824;7.134;2022-11-18T09:39:20;242.17;;;170.40;;
20067;SDS011;10194;50.824;7.134;2022-11-18T09:47:33;236.13;;;182.50;;
20067;SDS011;10194;50.824;7.134;2022-11-18T09:50:05;238.23;;;181.30;;
20067;SDS011;10194;50.824;7.134;2022-11-18T09:55:14;241.53;;;193.93;;
20067;SDS011;10194;50.824;7.134;2022-11-18T09:57:47;245.67;;;212.90;;
20067;SDS011;10194;50.824;7.134;2022-11-18T10:00:18;246.80;;;214.93;;
20067;SDS011;10194;50.824;7.134;2022-11-18T10:05:30;262.33;;;233.40;;
20067;SDS011;10194;50.824;7.134;2022-11-18T10:08:16;261.53;;;233.13;;
20067;SDS011;10194;50.824;7.134;2022-11-18T10:11:00;268.53;;;239.93;;
20067;SDS011;10194;50.824;7.134;2022-11-18T10:22:12;281.13;;;253.33;;
20067;SDS011;10194;50.824;7.134;2022-11-18T10:24:54;271.83;;;243.87;;
20067;SDS011;10194;50.824;7.134;2022-11-18T10:27:26;279.27;;;251.17;;
20067;SDS011;10194;50.824;7.134;2022-11-18T10:30:06;272.73;;;245.23;;
20067;SDS011;10194;50.824;7.134;2022-11-18T10:32:36;267.77;;;240.20;;
20067;SDS011;10194;50.824;7.134;2022-11-18T10:35:31;270.57;;;243.27;;
20067;SDS011;10194;50.824;7.134;2022-11-18T10:38:04;279.17;;;250.97;;
20067;SDS011;10194;50.824;7.134;2022-11-18T10:40:37;258.30;;;230.53;;
20067;SDS011;10194;50.824;7.134;2022-11-18T10:43:40;268.77;;;241.20;;
20067;SDS011;10194;50.824;7.134;2022-11-18T10:46:28;281.83;;;253.93;;
20067;SDS011;10194;50.824;7.134;2022-11-18T10:51:39;302.03;;;272.97;;
20067;SDS011;10194;50.824;7.134;2022-11-18T10:54:07;301.40;;;272.70;;
20067;SDS011;10194;50.824;7.134;2022-11-18T10:56:45;300.97;;;271.93;;
20067;SDS011;10194;50.824;7.134;2022-11-18T10:59:18;300.53;;;272.20;;
20067;SDS011;10194;50.824;7.134;2022-11-18T11:02:02;298.80;;;270.60;;
20067;SDS011;10194;50.824;7.134;2022-11-18T11:04:47;300.63;;;272.17;;
20067;SDS011;10194;50.824;7.134;2022-11-18T11:07:28;297.40;;;268.90;;
20067;SDS011;10194;50.824;7.134;2022-11-18T11:12:50;295.67;;;266.57;;
20067;SDS011;10194;50.824;7.134;2022-11-18T11:15:37;284.97;;;257.23;;
20067;SDS011;10194;50.824;7.134;2022-11-18T11:18:28;289.57;;;261.63;;
20067;SDS011;10194;50.824;7.134;2022-11-18T11:23:44;297.50;;;269.20;;
20067;SDS011;10194;50.824;7.134;2022-11-18T11:26:20;293.57;;;265.37;;
20067;SDS011;10194;50.824;7.134;2022-11-18T11:29:31;288.40;;;260.53;;
20067;SDS011;10194;50.824;7.134;2022-11-18T11:32:19;278.47;;;251.13;;
20067;SDS011;10194;50.824;7.134;2022-11-18T11:38:11;286.57;;;259.07;;
20067;SDS011;10194;50.824;7.134;2022-11-18T11:40:53;278.83;;;251.90;;
20067;SDS011;10194;50.824;7.134;2022-11-18T11:48:55;285.00;;;256.97;;
20067;SDS011;10194;50.824;7.134;2022-11-18T11:51:46;278.93;;;251.30;;
20067;SDS011;10194;50.824;7.134;2022-11-18T11:54:23;281.77;;;254.07;;
20067;SDS011;10194;50.824;7.134;2022-11-18T12:00:27;294.67;;;265.77;;
20067;SDS011;10194;50.824;7.134;2022-11-18T12:05:58;285.93;;;257.63;;
20067;SDS011;10194;50.824;7.134;2022-11-18T12:08:24;288.53;;;260.47;;
20067;SDS011;10194;50.824;7.134;2022-11-18T12:16:23;292.50;;;264.13;;
20067;SDS011;10194;50.824;7.134;2022-11-18T12:19:13;289.70;;;261.90;;
20067;SDS011;10194;50.824;7.134;2022-11-18T12:26:56;280.10;;;252.53;;
20067;SDS011;10194;50.824;7.134;2022-11-18T12:32:58;269.97;;;243.07;;
20067;SDS011;10194;50.824;7.134;2022-11-18T12:40:57;261.27;;;234.43;;
20067;SDS011;10194;50.824;7.134;2022-11-18T12:52:01;270.90;;;243.90;;
20067;SDS011;10194;50.824;7.134;2022-11-18T12:54:56;262.97;;;235.83;;
20067;SDS011;10194;50.824;7.134;2022-11-18T12:57:28;257.00;;;230.53;;
20067;SDS011;10194;50.824;7.134;2022-11-18T12:59:57;260.43;;;233.80;;
20067;SDS011;10194;50.824;7.134;2022-11-18T13:02:40;259.70;;;232.93;;
20067;SDS011;10194;50.824;7.134;2022-11-18T13:07:56;245.43;;;219.63;;
20067;SDS011;10194;50.824;7.134;2022-11-18T13:10:48;245.87;;;219.80;;
20067;SDS011;10194;50.824;7.134;2022-11-18T13:13:37;237.93;;;212.17;;
20067;SDS011;10194;50.824;7.134;2022-11-18T13:16:22;238.70;;;212.50;;
20067;SDS011;10194;50.824;7.134;2022-11-18T13:19:07;254.63;;;228.43;;
20067;SDS011;10194;50.824;7.134;2022-11-18T13:21:34;246.93;;;220.67;;
20067;SDS011;10194;50.824;7.134;2022-11-18T13:24:19;264.83;;;237.67;;
20067;SDS011;10194;50.824;7.134;2022-11-18T13:26:47;247.20;;;221.37;;
20067;SDS011;10194;50.824;7.134;2022-11-18T13:29:23;242.27;;;216.50;;
20067;SDS011;10194;50.824;7.134;2022-11-18T13:34:45;252.87;;;226.77;;
20067;SDS011;10194;50.824;7.134;2022-11-18T13:37:28;262.53;;;234.80;;
20067;SDS011;10194;50.824;7.134;2022-11-18T13:39:56;282.73;;;254.90;;
20067;SDS011;10194;50.824;7.134;2022-11-18T13:42:23;290.47;;;262.50;;
20067;SDS011;10194;50.824;7.134;2022-11-18T13:44:54;289.00;;;260.80;;
20067;SDS011;10194;50.824;7.134;2022-11-18T13:50:37;290.27;;;262.07;;
20067;SDS011;10194;50.824;7.134;2022-11-18T13:58:32;291.87;;;263.30;;
20067;SDS011;10194;50.824;7.134;2022-11-18T14:01:13;291.53;;;262.80;;
20067;SDS011;10194;50.824;7.134;2022-11-18T14:06:27;287.93;;;259.90;;
20067;SDS011;10194;50.824;7.134;2022-11-18T14:09:03;288.27;;;259.83;;
20067;SDS011;10194;50.824;7.134;2022-11-18T14:12:01;274.53;;;246.67;;
20067;SDS011;10194;50.824;7.134;2022-11-18T14:14:53;277.57;;;249.63;;
20067;SDS011;10194;50.824;7.134;2022-11-18T14:17:51;273.07;;;245.13;;
20067;SDS011;10194;50.824;7.134;2022-11-18T14:20:22;276.10;;;248.63;;
20067;SDS011;10194;50.824;7.134;2022-11-18T14:22:51;286.90;;;257.93;;
20067;SDS011;10194;50.824;7.134;2022-11-18T14:25:32;279.90;;;251.73;;
20067;SDS011;10194;50.824;7.134;2022-11-18T14:30:41;279.47;;;251.67;;
20067;SDS011;10194;50.824;7.134;2022-11-18T14:33:22;279.57;;;251.60;;
20067;SDS011;10194;50.824;7.134;2022-11-18T14:41:13;282.53;;;254.10;;
20067;SDS011;10194;50.824;7.134;2022-11-18T14:44:02;280.23;;;252.00;;
20067;SDS011;10194;50.824;7.134;2022-11-18T14:46:28;279.53;;;251.30;;
20067;SDS011;10194;50.824;7.134;2022-11-18T14:48:55;279.13;;;250.83;;
20067;SDS011;10194;50.824;7.134;2022-11-18T14:51:21;279.00;;;250.93;;
20067;SDS011;10194;50.824;7.134;2022-11-18T14:53:47;280.50;;;252.83;;
20067;SDS011;10194;50.824;7.134;2022-11-18T14:56:20;282.13;;;253.20;;
20067;SDS011;10194;50.824;7.134;2022-11-18T14:58:54;270.73;;;242.67;;
20067;SDS011;10194;50.824;7.134;2022-11-18T15:01:20;262.30;;;234.97;;
20067;SDS011;10194;50.824;7.134;2022-11-18T15:03:48;260.60;;;232.97;;
20067;SDS011;10194;50.824;7.134;2022-11-18T15:06:18;262.23;;;235.13;;
20067;SDS011;10194;50.824;7.134;2022-11-18T15:08:46;266.60;;;239.17;;
20067;SDS011;10194;50.824;7.134;2022-11-18T15:11:15;264.93;;;237.40;;
20067;SDS011;10194;50.824;7.134;2022-11-18T15:13:43;258.63;;;231.53;;
20067;SDS011;10194;50.824;7.134;2022-11-18T15:16:14;259.00;;;231.40;;
20067;SDS011;10194;50.824;7.134;2022-11-18T15:18:43;246.20;;;219.50;;
20067;SDS011;10194;50.824;7.134;2022-11-18T15:21:12;249.93;;;223.10;;
20067;SDS011;10194;50.824;7.134;2022-11-18T15:23:38;249.70;;;222.33;;
20067;SDS011;10194;50.824;7.134;2022-11-18T15:26:47;249.13;;;222.57;;
20067;SDS011;10194;50.824;7.134;2022-11-18T15:28:59;238.00;;;208.67;;
20067;SDS011;10194;50.824;7.134;2022-11-18T15:31:26;237.43;;;206.80;;
20067;SDS011;10194;50.824;7.134;2022-11-18T15:33:52;243.03;;;216.87;;
20067;SDS011;10194;50.824;7.134;2022-11-18T15:36:18;243.03;;;204.27;;
20067;SDS011;10194;50.824;7.134;2022-11-18T15:38:49;234.33;;;191.13;;
20067;SDS011;10194;50.824;7.134;2022-11-18T15:41:23;239.73;;;185.63;;
20067;SDS011;10194;50.824;7.134;2022-11-18T15:43:52;236.43;;;179.90;;
20067;SDS011;10194;50.824;7.134;2022-11-18T15:46:20;232.43;;;183.80;;
20067;SDS011;10194;50.824;7.134;2022-11-18T15:48:51;236.93;;;183.57;;
20067;SDS011;10194;50.824;7.134;2022-11-18T15:51:18;228.93;;;171.73;;
20067;SDS011;10194;50.824;7.134;2022-11-18T15:53:45;234.63;;;183.37;;
20067;SDS011;10194;50.824;7.134;2022-11-18T15:56:31;233.10;;;184.53;;
20067;SDS011;10194;50.824;7.134;2022-11-18T15:59:01;231.20;;;172.97;;
20067;SDS011;10194;50.824;7.134;2022-11-18T16:01:30;232.30;;;174.87;;
20067;SDS011;10194;50.824;7.134;2022-11-18T16:03:59;230.90;;;176.43;;
20067;SDS011;10194;50.824;7.134;2022-11-18T16:06:25;239.97;;;179.87;;
20067;SDS011;10194;50.824;7.134;2022-11-18T16:08:51;230.93;;;177.80;;
20067;SDS011;10194;50.824;7.134;2022-11-18T16:11:17;230.27;;;170.50;;
20067;SDS011;10194;50.824;7.134;2022-11-18T16:14:06;244.93;;;175.63;;
20067;SDS011;10194;50.824;7.134;2022-11-18T16:16:35;247.20;;;178.73;;
20067;SDS011;10194;50.824;7.134;2022-11-18T16:19:03;229.77;;;167.43;;
20067;SDS011;10194;50.824;7.134;2022-11-18T16:21:32;231.07;;;174.30;;
20067;SDS011;10194;50.824;7.134;2022-11-18T16:24:01;232.50;;;168.97;;
20067;SDS011;10194;50.824;7.134;2022-11-18T16:26:29;242.83;;;169.90;;
20067;SDS011;10194;50.824;7.134;2022-11-18T16:28:56;233.67;;;177.63;;